sensor_id;sensor_type;location;lat;lon;timestamp;P1;durP1;ratioP1;P2;durP2;ratioP2
19235;SDS011;9752;54.270;12.470;2022-08-20T00:03:22;57.73;;;39.40;;
19235;SDS011;9752;54.270;12.470;2022-08-20T00:08:27;48.33;;;37.87;;
19235;SDS011;9752;54.270;12.470;2022-08-20T00:13:32;50.63;;;38.03;;
19235;SDS011;9752;54.270;12.470;2022-08-20T00:18:37;48.53;;;36.83;;
19235;SDS011;9752;54.270;12.470;2022-08-20T00:23:41;48.23;;;37.33;;
19235;SDS011;9752;54.270;12.470;2022-08-20T00:28:45;40.43;;;32.97;;
19235;SDS011;9752;54.270;12.470;2022-08-20T00:33:47;41.73;;;33.50;;
19235;SDS011;9752;54.270;12.470;2022-08-20T00:38:50;49.20;;;34.17;;
19235;SDS011;9752;54.270;12.470;2022-08-20T00:44:03;43.07;;;33.20;;
19235;SDS011;9752;54.270;12.470;2022-08-20T00:49:08;45.03;;;36.00;;
19235;SDS011;9752;54.270;12.470;2022-08-20T00:54:17;45.37;;;34.53;;
19235;SDS011;9752;54.270;12.470;2022-08-20T00:59:23;56.53;;;40.00;;
19235;SDS011;9752;54.270;12.470;2022-08-20T01:04:29;64.03;;;43.23;;
19235;SDS011;9752;54.270;12.470;2022-08-20T01:09:33;71.70;;;50.43;;
19235;SDS011;9752;54.270;12.470;2022-08-20T01:14:39;81.47;;;55.63;;
19235;SDS011;9752;54.270;12.470;2022-08-20T01:19:46;74.23;;;50.63;;
19235;SDS011;9752;54.270;12.470;2022-08-20T01:24:53;66.33;;;47.90;;
19235;SDS011;9752;54.270;12.470;2022-08-20T01:30:03;69.83;;;51.07;;
19235;SDS011;9752;54.270;12.470;2022-08-20T01:35:07;74.13;;;51.70;;
19235;SDS011;9752;54.270;12.470;2022-08-20T01:40:09;70.83;;;51.13;;
19235;SDS011;9752;54.270;12.470;2022-08-20T01:45:18;85.00;;;55.77;;
19235;SDS011;9752;54.270;12.470;2022-08-20T01:50:22;88.03;;;57.50;;
19235;SDS011;9752;54.270;12.470;2022-08-20T01:55:27;97.37;;;60.33;;
19235;SDS011;9752;54.270;12.470;2022-08-20T02:00:30;109.93;;;63.10;;
19235;SDS011;9752;54.270;12.470;2022-08-20T02:05:34;109.87;;;64.60;;
19235;SDS011;9752;54.270;12.470;2022-08-20T02:10:36;103.73;;;63.53;;
19235;SDS011;9752;54.270;12.470;2022-08-20T02:15:39;117.00;;;68.73;;
19235;SDS011;9752;54.270;12.470;2022-08-20T02:20:41;112.23;;;66.43;;
19235;SDS011;9752;54.270;12.470;2022-08-20T02:25:44;122.97;;;73.17;;
19235;SDS011;9752;54.270;12.470;2022-08-20T02:30:50;111.70;;;68.13;;
19235;SDS011;9752;54.270;12.470;2022-08-20T02:35:54;136.37;;;78.93;;
19235;SDS011;9752;54.270;12.470;2022-08-20T02:40:57;124.10;;;77.73;;
19235;SDS011;9752;54.270;12.470;2022-08-20T02:46:01;131.10;;;82.90;;
19235;SDS011;9752;54.270;12.470;2022-08-20T02:51:03;119.77;;;73.97;;
19235;SDS011;9752;54.270;12.470;2022-08-20T02:56:07;116.40;;;73.70;;
19235;SDS011;9752;54.270;12.470;2022-08-20T03:01:11;120.43;;;71.67;;
19235;SDS011;9752;54.270;12.470;2022-08-20T03:06:14;129.63;;;77.73;;
19235;SDS011;9752;54.270;12.470;2022-08-20T03:11:16;126.67;;;79.67;;
19235;SDS011;9752;54.270;12.470;2022-08-20T03:16:21;146.13;;;83.53;;
19235;SDS011;9752;54.270;12.470;2022-08-20T03:21:22;127.73;;;75.37;;
19235;SDS011;9752;54.270;12.470;2022-08-20T03:26:25;110.30;;;69.50;;
19235;SDS011;9752;54.270;12.470;2022-08-20T03:31:28;118.77;;;73.90;;
19235;SDS011;9752;54.270;12.470;2022-08-20T03:36:30;131.63;;;74.77;;
19235;SDS011;9752;54.270;12.470;2022-08-20T03:41:32;114.37;;;68.23;;
19235;SDS011;9752;54.270;12.470;2022-08-20T03:46:35;120.73;;;73.40;;
19235;SDS011;9752;54.270;12.470;2022-08-20T03:51:38;114.87;;;65.87;;
19235;SDS011;9752;54.270;12.470;2022-08-20T03:56:39;119.17;;;72.13;;
19235;SDS011;9752;54.270;12.470;2022-08-20T04:01:42;138.10;;;74.97;;
19235;SDS011;9752;54.270;12.470;2022-08-20T04:06:45;139.93;;;79.43;;
19235;SDS011;9752;54.270;12.470;2022-08-20T04:11:47;150.27;;;77.40;;
19235;SDS011;9752;54.270;12.470;2022-08-20T04:16:50;140.63;;;74.77;;
19235;SDS011;9752;54.270;12.470;2022-08-20T04:21:52;158.67;;;74.07;;
19235;SDS011;9752;54.270;12.470;2022-08-20T04:26:53;132.77;;;72.63;;
19235;SDS011;9752;54.270;12.470;2022-08-20T04:31:57;140.80;;;79.13;;
19235;SDS011;9752;54.270;12.470;2022-08-20T04:36:59;143.30;;;76.27;;
19235;SDS011;9752;54.270;12.470;2022-08-20T04:42:01;135.27;;;72.07;;
19235;SDS011;9752;54.270;12.470;2022-08-20T04:47:04;123.27;;;69.97;;
19235;SDS011;9752;54.270;12.470;2022-08-20T04:52:06;102.83;;;61.47;;
19235;SDS011;9752;54.270;12.470;2022-08-20T04:57:10;92.40;;;56.07;;
19235;SDS011;9752;54.270;12.470;2022-08-20T05:02:13;83.47;;;50.23;;
19235;SDS011;9752;54.270;12.470;2022-08-20T05:07:17;75.10;;;49.97;;
19235;SDS011;9752;54.270;12.470;2022-08-20T05:12:19;90.83;;;55.77;;
19235;SDS011;9752;54.270;12.470;2022-08-20T05:17:22;83.67;;;53.47;;
19235;SDS011;9752;54.270;12.470;2022-08-20T05:22:24;47.37;;;35.43;;
19235;SDS011;9752;54.270;12.470;2022-08-20T05:27:26;38.80;;;30.93;;
19235;SDS011;9752;54.270;12.470;2022-08-20T05:32:29;32.90;;;27.67;;
19235;SDS011;9752;54.270;12.470;2022-08-20T05:37:32;40.57;;;31.03;;
19235;SDS011;9752;54.270;12.470;2022-08-20T05:42:34;30.67;;;26.20;;
19235;SDS011;9752;54.270;12.470;2022-08-20T05:47:38;30.70;;;25.93;;
19235;SDS011;9752;54.270;12.470;2022-08-20T05:52:41;33.93;;;27.47;;
19235;SDS011;9752;54.270;12.470;2022-08-20T05:57:43;25.50;;;22.67;;
19235;SDS011;9752;54.270;12.470;2022-08-20T06:02:46;22.20;;;18.80;;
19235;SDS011;9752;54.270;12.470;2022-08-20T06:08:05;22.90;;;15.87;;
19235;SDS011;9752;54.270;12.470;2022-08-20T06:13:07;13.50;;;12.07;;
19235;SDS011;9752;54.270;12.470;2022-08-20T06:18:10;11.90;;;10.63;;
19235;SDS011;9752;54.270;12.470;2022-08-20T06:23:13;9.57;;;8.67;;
19235;SDS011;9752;54.270;12.470;2022-08-20T06:28:15;8.70;;;7.90;;
19235;SDS011;9752;54.270;12.470;2022-08-20T06:33:19;10.07;;;8.33;;
19235;SDS011;9752;54.270;12.470;2022-08-20T06:38:21;9.20;;;7.30;;
19235;SDS011;9752;54.270;12.470;2022-08-20T06:43:23;10.97;;;8.27;;
19235;SDS011;9752;54.270;12.470;2022-08-20T06:48:26;11.00;;;9.23;;
19235;SDS011;9752;54.270;12.470;2022-08-20T06:53:28;13.93;;;10.03;;
19235;SDS011;9752;54.270;12.470;2022-08-20T06:58:30;12.20;;;11.00;;
19235;SDS011;9752;54.270;12.470;2022-08-20T07:03:33;11.20;;;10.03;;
19235;SDS011;9752;54.270;12.470;2022-08-20T07:08:36;8.60;;;7.67;;
19235;SDS011;9752;54.270;12.470;2022-08-20T07:13:38;8.57;;;7.17;;
19235;SDS011;9752;54.270;12.470;2022-08-20T07:18:42;10.03;;;8.07;;
19235;SDS011;9752;54.270;12.470;2022-08-20T07:23:44;9.13;;;7.67;;
19235;SDS011;9752;54.270;12.470;2022-08-20T07:28:48;9.10;;;7.20;;
19235;SDS011;9752;54.270;12.470;2022-08-20T07:33:51;8.33;;;6.90;;
19235;SDS011;9752;54.270;12.470;2022-08-20T07:38:53;7.53;;;6.13;;
19235;SDS011;9752;54.270;12.470;2022-08-20T07:43:55;9.63;;;6.90;;
19235;SDS011;9752;54.270;12.470;2022-08-20T07:48:58;7.27;;;5.80;;
19235;SDS011;9752;54.270;12.470;2022-08-20T07:54:00;10.03;;;6.30;;
19235;SDS011;9752;54.270;12.470;2022-08-20T07:59:02;7.87;;;6.90;;
19235;SDS011;9752;54.270;12.470;2022-08-20T08:04:05;8.67;;;6.47;;
19235;SDS011;9752;54.270;12.470;2022-08-20T08:09:07;9.60;;;7.20;;
19235;SDS011;9752;54.270;12.470;2022-08-20T08:14:12;8.03;;;7.23;;
19235;SDS011;9752;54.270;12.470;2022-08-20T08:19:16;9.67;;;7.60;;
19235;SDS011;9752;54.270;12.470;2022-08-20T08:24:19;10.70;;;8.40;;
19235;SDS011;9752;54.270;12.470;2022-08-20T08:29:20;9.97;;;9.07;;
19235;SDS011;9752;54.270;12.470;2022-08-20T08:34:23;9.33;;;8.43;;
19235;SDS011;9752;54.270;12.470;2022-08-20T08:39:25;9.57;;;8.57;;
19235;SDS011;9752;54.270;12.470;2022-08-20T08:44:28;10.37;;;9.37;;
19235;SDS011;9752;54.270;12.470;2022-08-20T08:49:35;14.87;;;13.27;;
19235;SDS011;9752;54.270;12.470;2022-08-20T08:54:37;25.77;;;16.77;;
19235;SDS011;9752;54.270;12.470;2022-08-20T08:59:43;18.73;;;16.57;;
19235;SDS011;9752;54.270;12.470;2022-08-20T09:04:49;22.33;;;17.23;;
19235;SDS011;9752;54.270;12.470;2022-08-20T09:09:51;24.17;;;17.07;;
19235;SDS011;9752;54.270;12.470;2022-08-20T09:14:53;16.70;;;15.00;;
19235;SDS011;9752;54.270;12.470;2022-08-20T09:19:56;25.17;;;18.73;;
19235;SDS011;9752;54.270;12.470;2022-08-20T09:24:58;23.33;;;17.50;;
19235;SDS011;9752;54.270;12.470;2022-08-20T09:30:02;20.73;;;17.70;;
19235;SDS011;9752;54.270;12.470;2022-08-20T09:35:07;23.97;;;17.83;;
19235;SDS011;9752;54.270;12.470;2022-08-20T09:40:10;20.40;;;16.33;;
19235;SDS011;9752;54.270;12.470;2022-08-20T09:45:12;17.50;;;12.73;;
19235;SDS011;9752;54.270;12.470;2022-08-20T09:50:16;21.97;;;18.00;;
19235;SDS011;9752;54.270;12.470;2022-08-20T09:55:19;23.77;;;19.13;;
19235;SDS011;9752;54.270;12.470;2022-08-20T10:00:32;23.70;;;19.33;;
19235;SDS011;9752;54.270;12.470;2022-08-20T10:05:35;26.43;;;17.33;;
19235;SDS011;9752;54.270;12.470;2022-08-20T10:10:37;22.70;;;18.37;;
19235;SDS011;9752;54.270;12.470;2022-08-20T10:15:39;28.93;;;20.93;;
19235;SDS011;9752;54.270;12.470;2022-08-20T10:20:42;27.80;;;18.83;;
19235;SDS011;9752;54.270;12.470;2022-08-20T10:25:44;20.17;;;18.00;;
19235;SDS011;9752;54.270;12.470;2022-08-20T10:30:45;19.83;;;15.70;;
19235;SDS011;9752;54.270;12.470;2022-08-20T10:35:49;19.77;;;16.50;;
19235;SDS011;9752;54.270;12.470;2022-08-20T10:40:50;25.00;;;18.23;;
19235;SDS011;9752;54.270;12.470;2022-08-20T10:45:52;24.40;;;17.97;;
19235;SDS011;9752;54.270;12.470;2022-08-20T10:50:55;19.50;;;16.00;;
19235;SDS011;9752;54.270;12.470;2022-08-20T10:55:57;22.17;;;17.50;;
19235;SDS011;9752;54.270;12.470;2022-08-20T11:00:59;19.43;;;17.13;;
19235;SDS011;9752;54.270;12.470;2022-08-20T11:06:02;18.77;;;15.67;;
19235;SDS011;9752;54.270;12.470;2022-08-20T11:11:05;14.80;;;13.10;;
19235;SDS011;9752;54.270;12.470;2022-08-20T11:16:07;19.13;;;13.00;;
19235;SDS011;9752;54.270;12.470;2022-08-20T11:21:11;15.50;;;12.83;;
19235;SDS011;9752;54.270;12.470;2022-08-20T11:26:15;17.63;;;14.03;;
19235;SDS011;9752;54.270;12.470;2022-08-20T11:31:22;20.53;;;13.33;;
19235;SDS011;9752;54.270;12.470;2022-08-20T11:36:25;24.57;;;18.80;;
19235;SDS011;9752;54.270;12.470;2022-08-20T11:41:27;21.70;;;16.70;;
19235;SDS011;9752;54.270;12.470;2022-08-20T11:46:28;23.03;;;15.40;;
19235;SDS011;9752;54.270;12.470;2022-08-20T11:51:33;16.80;;;13.70;;
19235;SDS011;9752;54.270;12.470;2022-08-20T11:56:36;19.57;;;14.40;;
19235;SDS011;9752;54.270;12.470;2022-08-20T12:01:38;13.30;;;11.53;;
19235;SDS011;9752;54.270;12.470;2022-08-20T12:06:41;16.77;;;12.90;;
19235;SDS011;9752;54.270;12.470;2022-08-20T12:11:43;10.70;;;9.13;;
19235;SDS011;9752;54.270;12.470;2022-08-20T12:16:45;11.00;;;9.83;;
19235;SDS011;9752;54.270;12.470;2022-08-20T12:21:48;11.20;;;10.00;;
19235;SDS011;9752;54.270;12.470;2022-08-20T12:26:50;13.60;;;10.67;;
19235;SDS011;9752;54.270;12.470;2022-08-20T12:31:51;12.77;;;9.60;;
19235;SDS011;9752;54.270;12.470;2022-08-20T12:36:59;9.90;;;8.27;;
19235;SDS011;9752;54.270;12.470;2022-08-20T12:42:04;9.37;;;7.00;;
19235;SDS011;9752;54.270;12.470;2022-08-20T12:47:07;6.53;;;5.97;;
19235;SDS011;9752;54.270;12.470;2022-08-20T12:52:12;7.27;;;6.57;;
19235;SDS011;9752;54.270;12.470;2022-08-20T12:57:21;9.87;;;7.13;;
19235;SDS011;9752;54.270;12.470;2022-08-20T13:02:25;8.63;;;7.37;;
19235;SDS011;9752;54.270;12.470;2022-08-20T13:07:28;8.03;;;7.07;;
19235;SDS011;9752;54.270;12.470;2022-08-20T13:12:31;9.47;;;6.77;;
19235;SDS011;9752;54.270;12.470;2022-08-20T13:17:33;10.33;;;6.77;;
19235;SDS011;9752;54.270;12.470;2022-08-20T13:22:36;7.03;;;6.43;;
19235;SDS011;9752;54.270;12.470;2022-08-20T13:27:39;7.83;;;6.87;;
19235;SDS011;9752;54.270;12.470;2022-08-20T13:32:41;6.90;;;6.27;;
19235;SDS011;9752;54.270;12.470;2022-08-20T13:37:46;5.97;;;5.47;;
19235;SDS011;9752;54.270;12.470;2022-08-20T13:42:48;5.87;;;5.37;;
19235;SDS011;9752;54.270;12.470;2022-08-20T13:47:50;5.73;;;5.23;;
19235;SDS011;9752;54.270;12.470;2022-08-20T13:52:55;5.20;;;4.70;;
19235;SDS011;9752;54.270;12.470;2022-08-20T13:57:57;5.40;;;4.90;;
19235;SDS011;9752;54.270;12.470;2022-08-20T14:03:05;5.70;;;5.13;;
19235;SDS011;9752;54.270;12.470;2022-08-20T14:08:09;5.00;;;4.60;;
19235;SDS011;9752;54.270;12.470;2022-08-20T14:13:13;5.57;;;4.97;;
19235;SDS011;9752;54.270;12.470;2022-08-20T14:18:14;4.50;;;4.13;;
19235;SDS011;9752;54.270;12.470;2022-08-20T14:23:17;5.20;;;4.47;;
19235;SDS011;9752;54.270;12.470;2022-08-20T14:28:21;6.00;;;4.53;;
19235;SDS011;9752;54.270;12.470;2022-08-20T14:33:24;4.80;;;4.40;;
19235;SDS011;9752;54.270;12.470;2022-08-20T14:38:27;4.37;;;3.97;;
19235;SDS011;9752;54.270;12.470;2022-08-20T14:43:28;5.10;;;4.60;;
19235;SDS011;9752;54.270;12.470;2022-08-20T14:48:30;5.33;;;4.10;;
19235;SDS011;9752;54.270;12.470;2022-08-20T14:53:34;6.70;;;4.57;;
19235;SDS011;9752;54.270;12.470;2022-08-20T14:58:37;4.67;;;4.17;;
19235;SDS011;9752;54.270;12.470;2022-08-20T15:03:39;5.03;;;4.37;;
19235;SDS011;9752;54.270;12.470;2022-08-20T15:08:42;5.20;;;4.50;;
19235;SDS011;9752;54.270;12.470;2022-08-20T15:13:43;9.50;;;4.60;;
19235;SDS011;9752;54.270;12.470;2022-08-20T15:18:45;5.37;;;4.20;;
19235;SDS011;9752;54.270;12.470;2022-08-20T15:23:48;5.23;;;4.30;;
19235;SDS011;9752;54.270;12.470;2022-08-20T15:28:50;6.50;;;3.90;;
19235;SDS011;9752;54.270;12.470;2022-08-20T15:33:52;4.33;;;3.93;;
19235;SDS011;9752;54.270;12.470;2022-08-20T15:38:55;7.37;;;4.73;;
19235;SDS011;9752;54.270;12.470;2022-08-20T15:43:56;6.33;;;4.23;;
19235;SDS011;9752;54.270;12.470;2022-08-20T15:48:58;5.10;;;4.23;;
19235;SDS011;9752;54.270;12.470;2022-08-20T15:54:03;5.90;;;4.23;;
19235;SDS011;9752;54.270;12.470;2022-08-20T15:59:11;7.27;;;4.27;;
19235;SDS011;9752;54.270;12.470;2022-08-20T16:04:28;6.43;;;4.03;;
19235;SDS011;9752;54.270;12.470;2022-08-20T16:09:45;6.27;;;3.70;;
19235;SDS011;9752;54.270;12.470;2022-08-20T16:14:56;5.40;;;3.90;;
19235;SDS011;9752;54.270;12.470;2022-08-20T16:20:02;6.57;;;4.40;;
19235;SDS011;9752;54.270;12.470;2022-08-20T16:25:10;7.40;;;4.27;;
19235;SDS011;9752;54.270;12.470;2022-08-20T16:30:15;6.17;;;4.07;;
19235;SDS011;9752;54.270;12.470;2022-08-20T16:35:25;5.10;;;4.47;;
19235;SDS011;9752;54.270;12.470;2022-08-20T16:40:32;6.03;;;4.40;;
19235;SDS011;9752;54.270;12.470;2022-08-20T16:45:41;8.67;;;4.10;;
19235;SDS011;9752;54.270;12.470;2022-08-20T16:50:50;5.67;;;4.07;;
19235;SDS011;9752;54.270;12.470;2022-08-20T16:55:58;4.60;;;4.20;;
19235;SDS011;9752;54.270;12.470;2022-08-20T17:01:05;5.37;;;4.27;;
19235;SDS011;9752;54.270;12.470;2022-08-20T17:06:13;7.10;;;3.97;;
19235;SDS011;9752;54.270;12.470;2022-08-20T17:11:23;8.73;;;3.83;;
19235;SDS011;9752;54.270;12.470;2022-08-20T17:16:30;8.30;;;4.43;;
19235;SDS011;9752;54.270;12.470;2022-08-20T17:21:34;6.87;;;3.83;;
19235;SDS011;9752;54.270;12.470;2022-08-20T17:26:41;6.17;;;3.60;;
19235;SDS011;9752;54.270;12.470;2022-08-20T17:31:47;6.97;;;3.57;;
19235;SDS011;9752;54.270;12.470;2022-08-20T17:36:51;6.23;;;3.87;;
19235;SDS011;9752;54.270;12.470;2022-08-20T17:42:02;6.67;;;4.10;;
19235;SDS011;9752;54.270;12.470;2022-08-20T17:47:14;6.43;;;4.13;;
19235;SDS011;9752;54.270;12.470;2022-08-20T17:52:18;5.00;;;3.97;;
19235;SDS011;9752;54.270;12.470;2022-08-20T17:57:29;4.33;;;3.40;;
19235;SDS011;9752;54.270;12.470;2022-08-20T18:02:37;7.87;;;3.50;;
19235;SDS011;9752;54.270;12.470;2022-08-20T18:07:39;8.13;;;3.87;;
19235;SDS011;9752;54.270;12.470;2022-08-20T18:12:55;7.53;;;3.93;;
19235;SDS011;9752;54.270;12.470;2022-08-20T18:23:33;8.30;;;3.90;;
19235;SDS011;9752;54.270;12.470;2022-08-20T18:28:42;6.00;;;3.70;;
19235;SDS011;9752;54.270;12.470;2022-08-20T18:33:46;8.77;;;3.70;;
19235;SDS011;9752;54.270;12.470;2022-08-20T18:38:54;7.20;;;3.47;;
19235;SDS011;9752;54.270;12.470;2022-08-20T18:44:04;5.30;;;3.60;;
19235;SDS011;9752;54.270;12.470;2022-08-20T18:49:09;6.60;;;4.50;;
19235;SDS011;9752;54.270;12.470;2022-08-20T18:54:19;6.43;;;3.63;;
19235;SDS011;9752;54.270;12.470;2022-08-20T18:59:25;4.43;;;3.17;;
19235;SDS011;9752;54.270;12.470;2022-08-20T19:04:28;7.03;;;3.50;;
19235;SDS011;9752;54.270;12.470;2022-08-20T19:09:47;7.73;;;3.23;;
19235;SDS011;9752;54.270;12.470;2022-08-20T19:15:11;6.10;;;3.40;;
19235;SDS011;9752;54.270;12.470;2022-08-20T19:20:17;5.90;;;3.37;;
19235;SDS011;9752;54.270;12.470;2022-08-20T19:25:21;6.03;;;3.50;;
19235;SDS011;9752;54.270;12.470;2022-08-20T19:30:29;6.53;;;3.63;;
19235;SDS011;9752;54.270;12.470;2022-08-20T19:35:34;8.07;;;3.40;;
19235;SDS011;9752;54.270;12.470;2022-08-20T19:40:36;7.93;;;4.03;;
19235;SDS011;9752;54.270;12.470;2022-08-20T19:45:42;8.50;;;4.10;;
19235;SDS011;9752;54.270;12.470;2022-08-20T19:50:48;7.00;;;3.87;;
19235;SDS011;9752;54.270;12.470;2022-08-20T19:55:56;9.10;;;4.30;;
19235;SDS011;9752;54.270;12.470;2022-08-20T20:01:02;9.10;;;4.07;;
19235;SDS011;9752;54.270;12.470;2022-08-20T20:06:09;8.27;;;5.27;;
19235;SDS011;9752;54.270;12.470;2022-08-20T20:11:15;12.70;;;5.13;;
19235;SDS011;9752;54.270;12.470;2022-08-20T20:16:20;9.07;;;4.87;;
19235;SDS011;9752;54.270;12.470;2022-08-20T20:21:23;9.87;;;5.60;;
19235;SDS011;9752;54.270;12.470;2022-08-20T20:26:37;10.03;;;5.53;;
19235;SDS011;9752;54.270;12.470;2022-08-20T20:31:47;8.37;;;5.70;;
19235;SDS011;9752;54.270;12.470;2022-08-20T20:37:00;9.50;;;4.97;;
19235;SDS011;9752;54.270;12.470;2022-08-20T20:42:05;7.83;;;4.97;;
19235;SDS011;9752;54.270;12.470;2022-08-20T20:47:17;8.50;;;4.30;;
19235;SDS011;9752;54.270;12.470;2022-08-20T20:52:22;9.10;;;4.10;;
19235;SDS011;9752;54.270;12.470;2022-08-20T20:57:24;11.43;;;4.00;;
19235;SDS011;9752;54.270;12.470;2022-08-20T21:02:27;12.13;;;4.10;;
19235;SDS011;9752;54.270;12.470;2022-08-20T21:07:30;9.20;;;3.67;;
19235;SDS011;9752;54.270;12.470;2022-08-20T21:12:32;8.57;;;3.37;;
19235;SDS011;9752;54.270;12.470;2022-08-20T21:17:35;12.47;;;4.20;;
19235;SDS011;9752;54.270;12.470;2022-08-20T21:22:37;5.90;;;3.03;;
19235;SDS011;9752;54.270;12.470;2022-08-20T21:27:39;8.07;;;3.40;;
19235;SDS011;9752;54.270;12.470;2022-08-20T21:32:46;5.83;;;3.67;;
19235;SDS011;9752;54.270;12.470;2022-08-20T21:37:48;6.27;;;4.13;;
19235;SDS011;9752;54.270;12.470;2022-08-20T21:42:50;4.77;;;4.03;;
19235;SDS011;9752;54.270;12.470;2022-08-20T21:47:53;9.90;;;4.47;;
19235;SDS011;9752;54.270;12.470;2022-08-20T21:52:56;10.67;;;4.33;;
19235;SDS011;9752;54.270;12.470;2022-08-20T21:57:57;6.40;;;3.70;;
19235;SDS011;9752;54.270;12.470;2022-08-20T22:03:01;11.97;;;4.17;;
19235;SDS011;9752;54.270;12.470;2022-08-20T22:08:03;6.97;;;4.20;;
19235;SDS011;9752;54.270;12.470;2022-08-20T22:13:04;9.57;;;4.20;;
19235;SDS011;9752;54.270;12.470;2022-08-20T22:18:08;13.37;;;4.60;;
19235;SDS011;9752;54.270;12.470;2022-08-20T22:23:09;4.83;;;3.70;;
19235;SDS011;9752;54.270;12.470;2022-08-20T22:28:12;7.13;;;3.63;;
19235;SDS011;9752;54.270;12.470;2022-08-20T22:33:17;9.13;;;4.20;;
19235;SDS011;9752;54.270;12.470;2022-08-20T22:38:22;11.70;;;4.20;;
19235;SDS011;9752;54.270;12.470;2022-08-20T22:43:24;10.10;;;4.47;;
19235;SDS011;9752;54.270;12.470;2022-08-20T22:48:27;9.83;;;4.93;;
19235;SDS011;9752;54.270;12.470;2022-08-20T22:53:29;12.30;;;4.93;;
19235;SDS011;9752;54.270;12.470;2022-08-20T22:58:31;9.23;;;4.40;;
19235;SDS011;9752;54.270;12.470;2022-08-20T23:03:34;10.00;;;3.70;;
19235;SDS011;9752;54.270;12.470;2022-08-20T23:08:37;8.17;;;2.77;;
19235;SDS011;9752;54.270;12.470;2022-08-20T23:13:39;10.63;;;2.90;;
19235;SDS011;9752;54.270;12.470;2022-08-20T23:18:43;6.83;;;3.30;;
19235;SDS011;9752;54.270;12.470;2022-08-20T23:23:44;6.53;;;2.90;;
19235;SDS011;9752;54.270;12.470;2022-08-20T23:28:46;5.83;;;2.70;;
19235;SDS011;9752;54.270;12.470;2022-08-20T23:33:50;5.73;;;2.80;;
19235;SDS011;9752;54.270;12.470;2022-08-20T23:38:51;9.07;;;2.87;;
19235;SDS011;9752;54.270;12.470;2022-08-20T23:43:53;5.07;;;2.73;;
19235;SDS011;9752;54.270;12.470;2022-08-20T23:48:57;9.20;;;2.80;;
19235;SDS011;9752;54.270;12.470;2022-08-20T23:53:58;6.90;;;3.10;;
19235;SDS011;9752;54.270;12.470;2022-08-20T23:59:01;6.50;;;3.33;;
